createdAt,value
2019-02-08T00:01:32.158Z,84.85
2019-02-08T00:03:58.884Z,84.56
2019-02-08T00:06:25.488Z,85.43
2019-02-08T00:08:52.201Z,85.06
2019-02-08T00:11:20.040Z,85.21
2019-02-08T00:13:46.509Z,85.29
2019-02-08T00:16:13.152Z,85.50
2019-02-08T00:18:40.114Z,85.20
2019-02-08T00:21:06.761Z,85.85
2019-02-08T00:23:33.690Z,86.42
2019-02-08T00:29:34.842Z,85.40
2019-02-08T00:32:01.189Z,85.66
2019-02-08T00:34:27.501Z,85.74
2019-02-08T00:36:53.923Z,85.60
2019-02-08T00:39:20.310Z,86.01
2019-02-08T00:41:47.012Z,85.75
2019-02-08T00:44:13.341Z,86.06
2019-02-08T00:46:39.631Z,86.14
2019-02-08T00:49:06.216Z,85.73
2019-02-08T00:51:32.985Z,85.65
2019-02-08T00:53:59.424Z,85.69
2019-02-08T00:56:25.911Z,85.50
2019-02-08T00:58:52.351Z,86.14
2019-02-08T01:01:18.902Z,87.17
2019-02-08T01:03:45.359Z,85.05
2019-02-08T01:06:11.725Z,85.99
2019-02-08T01:08:38.193Z,85.82
2019-02-08T01:11:04.703Z,86.20
2019-02-08T01:13:31.476Z,86.30
2019-02-08T01:16:00.649Z,85.97
2019-02-08T01:18:27.062Z,86.27
2019-02-08T01:20:53.472Z,85.88
2019-02-08T01:23:20.222Z,86.14
2019-02-08T01:25:46.562Z,86.83
2019-02-08T01:28:13.314Z,86.84
2019-02-08T01:30:39.910Z,86.13
2019-02-08T01:33:06.159Z,86.34
2019-02-08T01:35:32.681Z,86.22
2019-02-08T01:38:07.632Z,86.48
2019-02-08T01:40:36.221Z,86.48
2019-02-08T01:43:04.574Z,86.62
2019-02-08T01:45:32.290Z,86.57
2019-02-08T01:47:59.217Z,86.69
2019-02-08T01:50:28.536Z,86.96
2019-02-08T01:52:55.032Z,86.96
2019-02-08T01:55:21.515Z,86.18
2019-02-08T01:57:48.827Z,86.34
2019-02-08T02:00:24.840Z,86.21
2019-02-08T02:02:51.422Z,86.57
2019-02-08T02:05:18.518Z,86.43
2019-02-08T02:07:45.266Z,86.15
2019-02-08T02:10:21.887Z,86.63
2019-02-08T02:12:51.010Z,86.70
2019-02-08T02:15:17.550Z,86.49
2019-02-08T02:17:44.042Z,86.91
2019-02-08T02:20:14.348Z,86.30
2019-02-08T02:22:41.619Z,86.37
2019-02-08T02:25:09.038Z,86.91
2019-02-08T02:27:35.387Z,86.59
2019-02-08T02:30:04.421Z,86.35
2019-02-08T02:32:33.677Z,86.09
2019-02-08T02:35:00.245Z,86.14
2019-02-08T02:37:26.590Z,86.11
2019-02-08T02:39:55.572Z,85.87
2019-02-08T02:42:21.941Z,85.98
2019-02-08T02:44:48.369Z,85.80
2019-02-08T02:47:15.027Z,86.31
2019-02-08T02:49:41.359Z,86.15
2019-02-08T02:52:08.107Z,85.98
2019-02-08T02:54:34.941Z,85.96
2019-02-08T02:57:01.564Z,86.35
2019-02-08T02:59:28.230Z,86.33
2019-02-08T03:01:54.626Z,86.64
2019-02-08T03:04:22.008Z,87.33
2019-02-08T03:06:48.408Z,87.63
2019-02-08T03:09:14.831Z,87.14
2019-02-08T03:11:41.299Z,87.00
2019-02-08T03:14:08.060Z,87.55
2019-02-08T03:16:34.467Z,87.62
2019-02-08T03:19:00.861Z,87.94
2019-02-08T03:21:27.432Z,88.48
2019-02-08T03:23:53.762Z,87.78
2019-02-08T03:29:31.206Z,88.23
2019-02-08T03:31:57.448Z,88.73
2019-02-08T03:34:23.790Z,89.03
2019-02-08T03:36:50.427Z,89.27
2019-02-08T03:39:17.067Z,89.57
2019-02-08T03:41:43.510Z,89.62
2019-02-08T03:44:09.953Z,89.55
2019-02-08T03:46:36.647Z,89.65
2019-02-08T03:49:03.828Z,89.87
2019-02-08T03:51:30.162Z,89.83
2019-02-08T03:53:56.598Z,89.63
2019-02-08T03:56:23.113Z,90.09
2019-02-08T03:58:49.360Z,90.02
2019-02-08T04:01:15.775Z,89.49
2019-02-08T04:03:42.196Z,89.38
2019-02-08T04:06:08.648Z,89.57
2019-02-08T04:08:35.075Z,89.55
2019-02-08T04:11:01.512Z,89.51
2019-02-08T04:13:27.806Z,89.36
2019-02-08T04:15:54.196Z,89.40
2019-02-08T04:18:20.491Z,88.93
2019-02-08T04:20:47.075Z,89.19
2019-02-08T04:23:13.574Z,89.62
2019-02-08T04:25:40.076Z,89.53
2019-02-08T04:28:06.580Z,89.75
2019-02-08T04:30:32.970Z,89.73
2019-02-08T04:33:01.221Z,89.38
2019-02-08T04:35:27.789Z,89.19
2019-02-08T04:37:54.141Z,89.05
2019-02-08T04:40:22.119Z,88.90
2019-02-08T04:42:48.711Z,88.43
2019-02-08T04:45:21.680Z,88.78
2019-02-08T04:47:48.215Z,88.18
2019-02-08T04:50:19.619Z,88.38
2019-02-08T04:52:46.285Z,88.18
2019-02-08T04:55:13.079Z,88.41
2019-02-08T04:57:39.577Z,88.43
2019-02-08T05:00:12.995Z,88.31
2019-02-08T05:02:39.458Z,88.21
2019-02-08T05:05:06.808Z,88.12
2019-02-08T05:07:33.739Z,88.23
2019-02-08T05:10:00.610Z,88.47
2019-02-08T05:12:27.041Z,88.15
2019-02-08T05:14:53.471Z,87.94
2019-02-08T05:17:19.990Z,88.07
2019-02-08T05:19:46.319Z,88.23
2019-02-08T05:22:12.675Z,87.83
2019-02-08T05:24:45.885Z,88.00
2019-02-08T05:27:07.410Z,87.75
2019-02-08T05:29:33.896Z,87.52
2019-02-08T05:32:00.336Z,87.72
2019-02-08T05:34:26.582Z,87.59
2019-02-08T05:36:53.170Z,87.57
2019-02-08T05:39:19.750Z,87.78
2019-02-08T05:41:46.166Z,87.40
2019-02-08T05:44:12.579Z,90.73
2019-02-08T05:46:38.853Z,87.17
2019-02-08T05:49:05.269Z,87.01
2019-02-08T05:51:31.703Z,86.26
2019-02-08T05:53:58.282Z,86.08
2019-02-08T05:56:24.606Z,86.66
2019-02-08T05:58:50.992Z,86.44
2019-02-08T06:01:17.270Z,86.25
2019-02-08T06:03:43.717Z,86.39
2019-02-08T06:09:34.667Z,86.57
2019-02-08T06:12:01.165Z,86.80
2019-02-08T06:14:27.866Z,86.27
2019-02-08T06:16:54.197Z,87.00
2019-02-08T06:19:20.729Z,86.49
2019-02-08T06:21:47.242Z,86.15
2019-02-08T06:24:13.901Z,86.61
2019-02-08T06:26:40.470Z,86.33
2019-02-08T06:29:06.994Z,86.29
2019-02-08T06:31:33.381Z,86.51
2019-02-08T06:34:00.055Z,86.51
2019-02-08T06:36:26.589Z,86.40
2019-02-08T06:38:53.638Z,86.66
2019-02-08T06:41:20.595Z,86.08
2019-02-08T06:43:47.422Z,86.27
2019-02-08T06:46:14.367Z,86.65
2019-02-08T06:48:41.607Z,85.96
2019-02-08T06:51:08.496Z,86.34
2019-02-08T06:53:35.761Z,86.36
2019-02-08T06:56:03.228Z,86.14
2019-02-08T06:58:34.791Z,86.56
2019-02-08T07:01:18.641Z,86.93
2019-02-08T07:03:47.561Z,87.08
2019-02-08T07:06:19.043Z,86.94
2019-02-08T07:08:53.925Z,86.79
2019-02-08T07:11:39.234Z,86.91
2019-02-08T07:14:25.336Z,87.13
2019-02-08T07:17:00.163Z,86.79
2019-02-08T07:19:35.094Z,86.92
2019-02-08T07:22:06.318Z,86.72
2019-02-08T07:24:35.191Z,86.64
2019-02-08T07:27:20.179Z,86.71
2019-02-08T07:30:01.587Z,86.24
2019-02-08T07:35:58.441Z,86.59
2019-02-08T07:38:29.631Z,86.39
2019-02-08T07:41:08.816Z,86.25
2019-02-08T07:43:38.455Z,86.43
2019-02-08T07:46:08.518Z,85.77
2019-02-08T07:48:50.087Z,85.85
2019-02-08T07:54:35.447Z,85.06
2019-02-08T07:57:04.132Z,85.34
2019-02-08T07:59:32.638Z,85.24
2019-02-08T08:02:01.793Z,85.15
2019-02-08T08:04:35.404Z,85.14
2019-02-08T08:07:12.561Z,85.43
2019-02-08T08:09:41.635Z,85.30
2019-02-08T08:12:16.244Z,84.82
2019-02-08T08:14:56.256Z,84.18
2019-02-08T08:17:41.616Z,84.23
2019-02-08T08:20:19.840Z,83.95
2019-02-08T08:22:48.451Z,83.42
2019-02-08T08:25:17.424Z,83.47
2019-02-08T08:27:54.968Z,82.99
2019-02-08T08:30:29.656Z,82.79
2019-02-08T08:33:13.394Z,82.75
2019-02-08T08:36:04.628Z,82.37
2019-02-08T08:38:52.296Z,82.19
2019-02-08T08:41:34.532Z,82.45
2019-02-08T08:44:19.489Z,82.34
2019-02-08T08:46:49.654Z,81.80
2019-02-08T08:49:34.604Z,81.85
2019-02-08T08:52:11.363Z,81.35
2019-02-08T08:54:50.359Z,81.06
2019-02-08T08:57:29.458Z,80.81
2019-02-08T09:00:14.988Z,80.71
2019-02-08T09:03:04.804Z,81.47
2019-02-08T09:05:40.697Z,80.92
2019-02-08T09:08:20.365Z,80.70
2019-02-08T09:11:11.876Z,80.25
2019-02-08T09:13:53.911Z,80.41
2019-02-08T09:16:40.649Z,80.44
2019-02-08T09:19:19.888Z,80.05
2019-02-08T09:22:05.414Z,80.00
2019-02-08T09:24:55.111Z,80.15
2019-02-08T09:27:25.291Z,79.35
2019-02-08T09:30:06.909Z,78.63
2019-02-08T09:32:45.723Z,79.04
2019-02-08T09:35:27.864Z,78.71
2019-02-08T09:38:23.981Z,78.67
2019-02-08T09:41:11.924Z,78.56
2019-02-08T09:44:11.043Z,77.51
2019-02-08T09:46:58.001Z,76.91
2019-02-08T09:49:37.387Z,76.77
2019-02-08T09:52:38.139Z,76.25
2019-02-08T09:55:29.963Z,76.18
2019-02-08T09:58:08.986Z,75.55
2019-02-08T10:01:03.298Z,75.11
2019-02-08T10:03:50.005Z,75.57
2019-02-08T10:06:53.770Z,74.28
2019-02-08T10:09:44.170Z,75.33
2019-02-08T10:12:26.519Z,75.38
2019-02-08T10:15:13.931Z,75.13
2019-02-08T10:17:50.241Z,75.31
2019-02-08T10:20:42.968Z,75.87
2019-02-08T10:23:33.262Z,76.07
2019-02-08T10:26:06.655Z,75.60
2019-02-08T10:28:53.867Z,75.34
2019-02-08T10:31:58.158Z,76.41
2019-02-08T10:34:51.191Z,76.63
2019-02-08T10:37:54.998Z,77.19
2019-02-08T10:40:40.545Z,77.74
2019-02-08T10:43:27.350Z,77.57
2019-02-08T10:46:28.231Z,77.48
2019-02-08T10:49:15.153Z,77.41
2019-02-08T10:52:02.604Z,77.67
2019-02-08T10:54:52.819Z,77.49
2019-02-08T10:57:39.878Z,76.75
2019-02-08T11:00:22.560Z,77.32
2019-02-08T11:02:55.792Z,77.46
2019-02-08T11:05:45.570Z,77.93
2019-02-08T11:08:32.305Z,77.93
2019-02-08T11:11:31.619Z,77.68
2019-02-08T11:14:25.059Z,77.53
2019-02-08T11:17:07.415Z,76.81
2019-02-08T11:19:33.881Z,77.37
2019-02-08T11:22:00.226Z,77.30
2019-02-08T11:24:26.907Z,77.90
2019-02-08T11:26:53.967Z,76.14
2019-02-08T11:29:20.659Z,76.99
2019-02-08T11:31:47.123Z,77.42
2019-02-08T11:34:14.381Z,77.63
2019-02-08T11:36:41.030Z,77.35
2019-02-08T11:39:13.040Z,77.08
2019-02-08T11:41:39.922Z,77.52
2019-02-08T11:44:06.825Z,78.57
2019-02-08T11:46:33.251Z,77.31
2019-02-08T11:49:00.243Z,77.35
2019-02-08T11:51:26.889Z,77.77
2019-02-08T11:53:53.519Z,77.68
2019-02-08T11:56:29.916Z,77.41
2019-02-08T11:58:52.024Z,77.58
2019-02-08T12:01:18.932Z,77.74
2019-02-08T12:03:45.431Z,77.30
2019-02-08T12:06:11.857Z,77.45
2019-02-08T12:08:38.737Z,77.39
2019-02-08T12:11:05.554Z,78.45
2019-02-08T12:13:32.000Z,77.91
2019-02-08T12:15:58.850Z,78.06
2019-02-08T12:18:25.488Z,78.30
2019-02-08T12:20:52.292Z,78.66
2019-02-08T12:23:18.674Z,78.38
2019-02-08T12:25:45.197Z,78.53
2019-02-08T12:28:11.496Z,78.96
2019-02-08T12:30:42.485Z,79.24
2019-02-08T12:33:09.084Z,79.09
2019-02-08T12:35:35.781Z,78.95
2019-02-08T12:38:03.059Z,79.15
2019-02-08T12:40:29.867Z,78.56
2019-02-08T12:42:58.645Z,78.67
2019-02-08T12:45:25.295Z,78.58
2019-02-08T12:47:52.004Z,79.14
2019-02-08T12:50:20.200Z,78.84
2019-02-08T12:52:46.647Z,78.61
2019-02-08T12:55:15.036Z,78.63
2019-02-08T12:57:41.506Z,78.64
2019-02-08T13:00:21.299Z,78.26
2019-02-08T13:02:47.645Z,78.01
2019-02-08T13:05:15.861Z,78.62
2019-02-08T13:07:42.576Z,78.66
2019-02-08T13:10:12.915Z,78.04
2019-02-08T13:12:39.462Z,78.83
2019-02-08T13:15:09.992Z,78.63
2019-02-08T13:17:36.536Z,78.81
2019-02-08T13:20:06.315Z,79.11
2019-02-08T13:22:34.970Z,78.74
2019-02-08T13:25:01.499Z,78.80
2019-02-08T13:27:28.488Z,78.99
2019-02-08T13:29:55.118Z,79.19
2019-02-08T13:32:21.721Z,79.48
2019-02-08T13:34:47.972Z,79.42
2019-02-08T13:37:14.575Z,79.25
2019-02-08T13:39:43.103Z,79.20
2019-02-08T13:42:09.815Z,79.75
2019-02-08T13:44:36.387Z,79.73
2019-02-08T13:47:03.185Z,79.35
2019-02-08T13:49:30.990Z,79.67
2019-02-08T13:51:57.316Z,79.45
2019-02-08T13:54:24.159Z,79.76
2019-02-08T13:56:50.834Z,79.43
2019-02-08T13:59:18.649Z,79.46
2019-02-08T14:05:21.845Z,79.80
2019-02-08T14:07:48.180Z,80.33
2019-02-08T14:10:19.570Z,80.06
2019-02-08T14:12:46.231Z,80.06
2019-02-08T14:15:15.568Z,79.65
2019-02-08T14:17:41.955Z,79.86
2019-02-08T14:20:16.570Z,79.94
2019-02-08T14:22:43.389Z,79.66
2019-02-08T14:25:12.917Z,79.69
2019-02-08T14:27:40.035Z,79.77
2019-02-08T14:30:10.501Z,79.63
2019-02-08T14:32:37.055Z,79.93
2019-02-08T14:35:07.243Z,79.74
2019-02-08T14:37:33.910Z,79.64
2019-02-08T14:40:00.709Z,79.25
2019-02-08T14:42:27.129Z,79.77
2019-02-08T14:44:53.566Z,80.10
2019-02-08T14:47:19.991Z,80.09
2019-02-08T14:49:46.488Z,80.22
2019-02-08T14:52:12.804Z,80.03
2019-02-08T14:54:39.289Z,80.23
2019-02-08T14:57:07.607Z,80.42
2019-02-08T14:59:34.432Z,79.87
2019-02-08T15:02:01.228Z,79.87
2019-02-08T15:04:28.040Z,79.83
2019-02-08T15:06:54.853Z,79.61
2019-02-08T15:09:21.323Z,79.68
2019-02-08T15:11:47.831Z,79.80
2019-02-08T15:14:14.673Z,79.71
2019-02-08T15:16:41.352Z,80.04
2019-02-08T15:19:07.847Z,80.09
2019-02-08T15:25:11.289Z,80.28
2019-02-08T15:27:38.193Z,80.36
2019-02-08T15:30:20.578Z,80.15
2019-02-08T15:32:47.646Z,79.67
2019-02-08T15:35:18.287Z,79.51
2019-02-08T15:37:44.659Z,79.37
2019-02-08T15:40:17.654Z,79.51
2019-02-08T15:42:45.126Z,79.18
2019-02-08T15:45:17.786Z,79.24
2019-02-08T15:47:44.522Z,79.25
2019-02-08T15:50:11.293Z,79.39
2019-02-08T15:52:39.556Z,79.38
2019-02-08T15:55:24.698Z,79.35
2019-02-08T15:57:51.025Z,79.02
2019-02-08T16:00:23.216Z,78.93
2019-02-08T16:02:50.026Z,78.58
2019-02-08T16:05:18.858Z,79.16
2019-02-08T16:07:45.762Z,78.29
2019-02-08T16:10:15.856Z,78.35
2019-02-08T16:12:42.240Z,78.12
2019-02-08T16:15:18.294Z,78.18
2019-02-08T16:17:45.055Z,78.35
2019-02-08T16:20:14.083Z,78.39
2019-02-08T16:22:40.480Z,78.40
2019-02-08T16:25:10.165Z,78.58
2019-02-08T16:27:39.949Z,78.62
2019-02-08T16:30:11.700Z,78.45
2019-02-08T16:32:38.448Z,78.74
2019-02-08T16:35:08.795Z,79.12
2019-02-08T16:37:35.817Z,79.03
2019-02-08T16:40:15.559Z,79.05
2019-02-08T16:42:42.449Z,79.48
2019-02-08T16:45:16.780Z,80.16
2019-02-08T16:47:51.444Z,79.91
2019-02-08T16:50:24.743Z,80.36
2019-02-08T16:52:51.486Z,80.35
2019-02-08T16:55:19.297Z,81.10
2019-02-08T16:57:47.852Z,80.56
2019-02-08T17:00:52.823Z,80.54
2019-02-08T17:03:19.584Z,80.28
2019-02-08T17:05:49.705Z,80.79
2019-02-08T17:08:16.396Z,80.25
2019-02-08T17:10:43.110Z,80.44
2019-02-08T17:16:45.216Z,82.10
2019-02-08T17:19:11.972Z,82.85
2019-02-08T17:21:38.269Z,83.21
2019-02-08T17:24:08.906Z,83.12
2019-02-08T17:29:58.981Z,84.07
2019-02-08T17:32:29.664Z,84.10
2019-02-08T17:38:13.315Z,85.96
2019-02-08T17:40:52.452Z,86.00
2019-02-08T17:43:22.363Z,86.17
2019-02-08T17:45:49.429Z,86.69
2019-02-08T17:48:35.592Z,86.73
2019-02-08T17:51:06.123Z,86.35
2019-02-08T17:53:32.619Z,86.64
2019-02-08T17:55:59.884Z,86.39
2019-02-08T17:58:26.175Z,87.00
2019-02-08T18:00:56.889Z,87.27
2019-02-08T18:03:23.949Z,87.04
2019-02-08T18:05:50.578Z,87.43
2019-02-08T18:08:18.370Z,87.72
2019-02-08T18:10:44.692Z,87.56
2019-02-08T18:13:11.944Z,87.40
2019-02-08T18:15:38.821Z,87.62
2019-02-08T18:21:28.387Z,88.49
2019-02-08T18:23:55.205Z,88.32
2019-02-08T18:26:22.162Z,88.52
2019-02-08T18:28:48.984Z,88.62
2019-02-08T18:31:15.519Z,88.71
2019-02-08T18:33:42.006Z,89.04
2019-02-08T18:36:08.801Z,88.95
2019-02-08T18:38:35.672Z,89.44
2019-02-08T18:41:02.747Z,89.83
2019-02-08T18:43:29.567Z,89.71
2019-02-08T18:45:56.491Z,89.97
2019-02-08T18:51:34.166Z,90.00
2019-02-08T18:54:00.957Z,89.02
2019-02-08T18:56:27.889Z,89.01
2019-02-08T19:02:18.507Z,89.02
2019-02-08T19:04:45.211Z,88.88
2019-02-08T19:07:11.899Z,88.96
2019-02-08T19:12:49.842Z,88.75
2019-02-08T19:15:21.384Z,89.13
2019-02-08T19:17:47.927Z,88.52
2019-02-08T19:23:37.813Z,88.49
2019-02-08T19:26:08.783Z,88.17
2019-02-08T19:28:35.747Z,88.41
2019-02-08T19:31:02.394Z,88.27
2019-02-08T19:33:28.742Z,87.92
2019-02-08T19:39:30.759Z,87.40
2019-02-08T19:41:57.236Z,87.50
2019-02-08T19:44:23.917Z,87.10
2019-02-08T19:46:50.160Z,86.89
2019-02-08T19:49:16.686Z,87.01
2019-02-08T19:51:42.855Z,86.58
2019-02-08T19:54:09.184Z,86.46
2019-02-08T19:56:35.687Z,86.14
2019-02-08T19:59:02.277Z,85.74
2019-02-08T20:04:40.346Z,85.31
2019-02-08T20:07:07.084Z,85.38
2019-02-08T20:09:33.791Z,85.30
2019-02-08T20:12:00.432Z,85.42
2019-02-08T20:14:26.925Z,85.30
2019-02-08T20:16:54.061Z,85.13
2019-02-08T20:19:20.988Z,84.71
2019-02-08T20:21:47.403Z,84.65
2019-02-08T20:24:14.129Z,84.34
2019-02-08T20:26:40.617Z,84.34
2019-02-08T20:29:07.099Z,84.26
2019-02-08T20:31:33.474Z,84.08
2019-02-08T20:33:59.806Z,83.57
2019-02-08T20:36:26.582Z,83.40
2019-02-08T20:38:52.991Z,83.21
2019-02-08T20:41:19.894Z,82.40
2019-02-08T20:43:46.538Z,82.63
2019-02-08T20:46:13.156Z,82.44
2019-02-08T20:48:39.392Z,82.23
2019-02-08T20:51:05.814Z,82.11
2019-02-08T20:53:32.300Z,82.18
2019-02-08T20:55:58.490Z,81.62
2019-02-08T20:58:25.074Z,81.97
2019-02-08T21:00:51.780Z,81.89
2019-02-08T21:03:18.962Z,81.92
2019-02-08T21:05:46.147Z,81.76
2019-02-08T21:08:13.391Z,81.79
2019-02-08T21:10:40.552Z,81.99
2019-02-08T21:13:08.928Z,82.03
2019-02-08T21:15:35.565Z,81.97
2019-02-08T21:18:02.412Z,81.79
2019-02-08T21:20:29.082Z,82.96
2019-02-08T21:22:55.715Z,80.92
2019-02-08T21:28:49.137Z,80.95
2019-02-08T21:31:17.589Z,80.87
2019-02-08T21:33:44.564Z,81.09
2019-02-08T21:36:11.049Z,80.83
2019-02-08T21:38:37.653Z,81.24
2019-02-08T21:41:05.349Z,80.73
2019-02-08T21:43:33.428Z,80.92
2019-02-08T21:46:01.128Z,81.15
2019-02-08T21:48:27.556Z,80.86
2019-02-08T21:50:53.803Z,81.16
2019-02-08T21:53:20.155Z,80.69
2019-02-08T21:55:46.681Z,80.55
2019-02-08T21:58:13.110Z,80.36
2019-02-08T22:00:43.548Z,80.34
2019-02-08T22:03:10.464Z,80.40
2019-02-08T22:05:49.126Z,80.65
2019-02-08T22:08:16.051Z,80.44
2019-02-08T22:10:43.314Z,80.48
2019-02-08T22:13:10.049Z,80.24
2019-02-08T22:15:38.628Z,80.15
2019-02-08T22:18:06.106Z,80.11
2019-02-08T22:20:33.645Z,80.12
2019-02-08T22:23:00.099Z,79.78
2019-02-08T22:25:29.749Z,79.77
2019-02-08T22:27:57.252Z,80.03
2019-02-08T22:30:29.648Z,79.99
2019-02-08T22:32:58.516Z,79.48
2019-02-08T22:35:25.736Z,79.25
2019-02-08T22:37:52.198Z,79.69
2019-02-08T22:40:20.430Z,79.65
2019-02-08T22:42:47.207Z,79.32
2019-02-08T22:45:23.801Z,79.35
2019-02-08T22:47:50.677Z,79.55
2019-02-08T22:50:17.472Z,79.91
2019-02-08T22:52:44.317Z,79.52
2019-02-08T22:55:18.005Z,79.94
2019-02-08T22:57:44.484Z,79.62
2019-02-08T23:00:34.771Z,79.67
2019-02-08T23:03:01.489Z,79.19
2019-02-08T23:05:30.598Z,79.32
2019-02-08T23:07:57.647Z,79.15
2019-02-08T23:10:25.419Z,79.38
2019-02-08T23:12:52.046Z,79.60
2019-02-08T23:15:19.003Z,78.84
2019-02-08T23:17:45.952Z,78.67
2019-02-08T23:20:12.853Z,78.77
2019-02-08T23:22:39.496Z,78.70
2019-02-08T23:25:06.167Z,78.63
2019-02-08T23:27:34.628Z,78.31
2019-02-08T23:30:01.109Z,78.53
2019-02-08T23:32:27.505Z,78.25
2019-02-08T23:34:54.313Z,78.12
2019-02-08T23:37:25.836Z,78.06
2019-02-08T23:39:49.489Z,78.44
2019-02-08T23:42:16.197Z,78.34
2019-02-08T23:44:42.719Z,78.56
2019-02-08T23:47:09.463Z,78.45
2019-02-08T23:49:35.898Z,78.58
2019-02-08T23:52:02.438Z,78.26
2019-02-08T23:54:29.346Z,78.58
2019-02-08T23:56:55.884Z,78.74
2019-02-08T23:59:22.518Z,78.62
